sensor_id;sensor_type;location;lat;lon;timestamp;P1;durP1;ratioP1;P2;durP2;ratioP2
65996;SDS011;52765;52.258;21.052;2022-10-17T00:00:23;23.63;;;14.32;;
65996;SDS011;52765;52.258;21.052;2022-10-17T00:02:49;22.52;;;14.02;;
65996;SDS011;52765;52.258;21.052;2022-10-17T00:05:14;24.33;;;14.55;;
65996;SDS011;52765;52.258;21.052;2022-10-17T00:07:40;23.52;;;14.07;;
65996;SDS011;52765;52.258;21.052;2022-10-17T00:10:11;21.58;;;13.88;;
65996;SDS011;52765;52.258;21.052;2022-10-17T00:12:39;20.30;;;14.00;;
65996;SDS011;52765;52.258;21.052;2022-10-17T00:15:05;24.83;;;15.63;;
65996;SDS011;52765;52.258;21.052;2022-10-17T00:17:32;22.52;;;14.30;;
65996;SDS011;52765;52.258;21.052;2022-10-17T00:20:00;22.55;;;14.65;;
65996;SDS011;52765;52.258;21.052;2022-10-17T00:22:31;19.13;;;12.95;;
65996;SDS011;52765;52.258;21.052;2022-10-17T00:24:57;21.42;;;13.38;;
65996;SDS011;52765;52.258;21.052;2022-10-17T00:27:22;21.63;;;13.80;;
65996;SDS011;52765;52.258;21.052;2022-10-17T00:29:48;21.25;;;13.90;;
65996;SDS011;52765;52.258;21.052;2022-10-17T00:32:14;19.38;;;13.23;;
65996;SDS011;52765;52.258;21.052;2022-10-17T00:34:40;20.30;;;13.10;;
65996;SDS011;52765;52.258;21.052;2022-10-17T00:37:06;21.60;;;13.00;;
65996;SDS011;52765;52.258;21.052;2022-10-17T00:39:31;20.65;;;13.55;;
65996;SDS011;52765;52.258;21.052;2022-10-17T00:41:57;17.15;;;12.70;;
65996;SDS011;52765;52.258;21.052;2022-10-17T00:46:54;20.17;;;12.75;;
65996;SDS011;52765;52.258;21.052;2022-10-17T00:49:20;20.48;;;13.25;;
65996;SDS011;52765;52.258;21.052;2022-10-17T00:51:55;22.48;;;13.70;;
65996;SDS011;52765;52.258;21.052;2022-10-17T00:54:25;25.38;;;14.45;;
65996;SDS011;52765;52.258;21.052;2022-10-17T00:56:55;22.30;;;14.07;;
65996;SDS011;52765;52.258;21.052;2022-10-17T00:59:21;23.65;;;14.15;;
65996;SDS011;52765;52.258;21.052;2022-10-17T01:02:02;21.38;;;13.32;;
65996;SDS011;52765;52.258;21.052;2022-10-17T01:04:30;19.67;;;13.73;;
65996;SDS011;52765;52.258;21.052;2022-10-17T01:06:56;20.27;;;14.30;;
65996;SDS011;52765;52.258;21.052;2022-10-17T01:09:22;21.80;;;14.48;;
65996;SDS011;52765;52.258;21.052;2022-10-17T01:11:55;21.50;;;14.00;;
65996;SDS011;52765;52.258;21.052;2022-10-17T01:14:32;23.25;;;14.38;;
65996;SDS011;52765;52.258;21.052;2022-10-17T01:32:38;23.40;;;15.40;;
65996;SDS011;52765;52.258;21.052;2022-10-17T01:35:53;22.45;;;13.98;;
65996;SDS011;52765;52.258;21.052;2022-10-17T01:38:08;24.30;;;14.68;;
65996;SDS011;52765;52.258;21.052;2022-10-17T01:40:50;24.77;;;14.43;;
65996;SDS011;52765;52.258;21.052;2022-10-17T01:43:25;24.42;;;15.13;;
65996;SDS011;52765;52.258;21.052;2022-10-17T01:46:01;22.80;;;14.40;;
65996;SDS011;52765;52.258;21.052;2022-10-17T01:48:35;24.13;;;15.05;;
65996;SDS011;52765;52.258;21.052;2022-10-17T01:51:05;26.35;;;16.20;;
65996;SDS011;52765;52.258;21.052;2022-10-17T01:53:35;26.33;;;16.08;;
65996;SDS011;52765;52.258;21.052;2022-10-17T01:56:05;22.80;;;14.63;;
65996;SDS011;52765;52.258;21.052;2022-10-17T01:58:42;25.55;;;15.98;;
65996;SDS011;52765;52.258;21.052;2022-10-17T02:01:14;25.58;;;16.17;;
65996;SDS011;52765;52.258;21.052;2022-10-17T02:03:41;23.58;;;15.18;;
65996;SDS011;52765;52.258;21.052;2022-10-17T02:06:09;23.02;;;15.23;;
65996;SDS011;52765;52.258;21.052;2022-10-17T02:08:43;23.85;;;14.52;;
65996;SDS011;52765;52.258;21.052;2022-10-17T02:11:17;22.98;;;15.68;;
65996;SDS011;52765;52.258;21.052;2022-10-17T02:24:44;24.48;;;15.85;;
65996;SDS011;52765;52.258;21.052;2022-10-17T02:29:56;24.52;;;14.85;;
65996;SDS011;52765;52.258;21.052;2022-10-17T02:32:38;25.17;;;16.13;;
65996;SDS011;52765;52.258;21.052;2022-10-17T02:35:08;25.48;;;15.10;;
65996;SDS011;52765;52.258;21.052;2022-10-17T02:37:37;27.92;;;15.60;;
65996;SDS011;52765;52.258;21.052;2022-10-17T02:40:08;26.17;;;15.82;;
65996;SDS011;52765;52.258;21.052;2022-10-17T02:42:38;23.58;;;15.60;;
65996;SDS011;52765;52.258;21.052;2022-10-17T02:45:06;25.90;;;15.75;;
65996;SDS011;52765;52.258;21.052;2022-10-17T02:47:34;23.25;;;16.20;;
65996;SDS011;52765;52.258;21.052;2022-10-17T02:50:07;24.27;;;15.50;;
65996;SDS011;52765;52.258;21.052;2022-10-17T02:52:35;25.48;;;16.48;;
65996;SDS011;52765;52.258;21.052;2022-10-17T02:55:19;27.23;;;15.85;;
65996;SDS011;52765;52.258;21.052;2022-10-17T02:58:05;23.67;;;14.85;;
65996;SDS011;52765;52.258;21.052;2022-10-17T03:00:34;25.58;;;16.65;;
65996;SDS011;52765;52.258;21.052;2022-10-17T03:03:09;24.15;;;15.52;;
65996;SDS011;52765;52.258;21.052;2022-10-17T03:05:43;24.65;;;16.02;;
65996;SDS011;52765;52.258;21.052;2022-10-17T03:08:08;24.10;;;15.70;;
65996;SDS011;52765;52.258;21.052;2022-10-17T03:10:35;22.77;;;15.38;;
65996;SDS011;52765;52.258;21.052;2022-10-17T03:13:01;25.35;;;14.95;;
65996;SDS011;52765;52.258;21.052;2022-10-17T03:15:26;23.90;;;15.82;;
65996;SDS011;52765;52.258;21.052;2022-10-17T03:17:52;28.58;;;15.85;;
65996;SDS011;52765;52.258;21.052;2022-10-17T03:20:17;22.63;;;15.93;;
65996;SDS011;52765;52.258;21.052;2022-10-17T03:22:43;24.20;;;15.88;;
65996;SDS011;52765;52.258;21.052;2022-10-17T03:25:08;24.85;;;16.38;;
65996;SDS011;52765;52.258;21.052;2022-10-17T03:27:34;26.42;;;16.02;;
65996;SDS011;52765;52.258;21.052;2022-10-17T03:29:59;27.80;;;16.00;;
65996;SDS011;52765;52.258;21.052;2022-10-17T03:32:24;30.05;;;15.80;;
65996;SDS011;52765;52.258;21.052;2022-10-17T03:34:50;26.95;;;16.50;;
65996;SDS011;52765;52.258;21.052;2022-10-17T03:37:15;27.90;;;16.92;;
65996;SDS011;52765;52.258;21.052;2022-10-17T03:39:41;26.20;;;16.27;;
65996;SDS011;52765;52.258;21.052;2022-10-17T03:42:06;26.40;;;16.17;;
65996;SDS011;52765;52.258;21.052;2022-10-17T03:44:32;28.00;;;17.63;;
65996;SDS011;52765;52.258;21.052;2022-10-17T03:46:57;27.55;;;16.48;;
65996;SDS011;52765;52.258;21.052;2022-10-17T03:49:23;24.38;;;16.55;;
65996;SDS011;52765;52.258;21.052;2022-10-17T03:51:48;24.48;;;16.27;;
65996;SDS011;52765;52.258;21.052;2022-10-17T03:54:14;25.95;;;15.93;;
65996;SDS011;52765;52.258;21.052;2022-10-17T03:56:39;27.48;;;16.92;;
65996;SDS011;52765;52.258;21.052;2022-10-17T03:59:05;26.67;;;17.27;;
65996;SDS011;52765;52.258;21.052;2022-10-17T04:01:30;28.77;;;17.35;;
65996;SDS011;52765;52.258;21.052;2022-10-17T04:03:56;26.35;;;16.85;;
65996;SDS011;52765;52.258;21.052;2022-10-17T04:06:22;24.00;;;16.30;;
65996;SDS011;52765;52.258;21.052;2022-10-17T04:08:47;26.20;;;16.23;;
65996;SDS011;52765;52.258;21.052;2022-10-17T04:11:14;24.88;;;15.90;;
65996;SDS011;52765;52.258;21.052;2022-10-17T04:13:44;28.58;;;16.30;;
65996;SDS011;52765;52.258;21.052;2022-10-17T04:16:14;26.00;;;16.15;;
65996;SDS011;52765;52.258;21.052;2022-10-17T04:18:41;27.42;;;17.13;;
65996;SDS011;52765;52.258;21.052;2022-10-17T04:21:07;27.05;;;16.70;;
65996;SDS011;52765;52.258;21.052;2022-10-17T04:23:33;26.33;;;16.65;;
65996;SDS011;52765;52.258;21.052;2022-10-17T04:25:59;25.38;;;15.65;;
65996;SDS011;52765;52.258;21.052;2022-10-17T04:28:26;24.63;;;15.27;;
65996;SDS011;52765;52.258;21.052;2022-10-17T04:30:59;24.20;;;15.85;;
65996;SDS011;52765;52.258;21.052;2022-10-17T04:33:27;24.15;;;16.17;;
65996;SDS011;52765;52.258;21.052;2022-10-17T04:35:57;30.48;;;16.75;;
65996;SDS011;52765;52.258;21.052;2022-10-17T04:38:24;29.02;;;16.15;;
65996;SDS011;52765;52.258;21.052;2022-10-17T04:40:50;26.73;;;16.17;;
65996;SDS011;52765;52.258;21.052;2022-10-17T04:43:15;32.40;;;17.55;;
65996;SDS011;52765;52.258;21.052;2022-10-17T04:45:41;33.08;;;18.05;;
65996;SDS011;52765;52.258;21.052;2022-10-17T04:48:06;34.97;;;18.40;;
65996;SDS011;52765;52.258;21.052;2022-10-17T04:50:38;25.90;;;16.65;;
65996;SDS011;52765;52.258;21.052;2022-10-17T04:53:03;36.13;;;18.33;;
65996;SDS011;52765;52.258;21.052;2022-10-17T04:55:37;25.85;;;16.80;;
65996;SDS011;52765;52.258;21.052;2022-10-17T04:58:03;28.55;;;17.75;;
65996;SDS011;52765;52.258;21.052;2022-10-17T05:00:29;26.85;;;17.30;;
65996;SDS011;52765;52.258;21.052;2022-10-17T05:02:54;27.83;;;16.83;;
65996;SDS011;52765;52.258;21.052;2022-10-17T05:05:23;29.48;;;17.02;;
65996;SDS011;52765;52.258;21.052;2022-10-17T05:07:54;28.55;;;17.05;;
65996;SDS011;52765;52.258;21.052;2022-10-17T05:10:19;31.40;;;16.90;;
65996;SDS011;52765;52.258;21.052;2022-10-17T05:12:46;28.88;;;16.98;;
65996;SDS011;52765;52.258;21.052;2022-10-17T05:15:12;25.83;;;16.23;;
65996;SDS011;52765;52.258;21.052;2022-10-17T05:17:38;28.73;;;16.52;;
65996;SDS011;52765;52.258;21.052;2022-10-17T05:20:04;32.83;;;17.75;;
65996;SDS011;52765;52.258;21.052;2022-10-17T05:22:29;33.83;;;17.55;;
65996;SDS011;52765;52.258;21.052;2022-10-17T05:24:55;28.92;;;16.98;;
65996;SDS011;52765;52.258;21.052;2022-10-17T05:27:21;37.65;;;17.58;;
65996;SDS011;52765;52.258;21.052;2022-10-17T05:29:46;35.67;;;18.00;;
65996;SDS011;52765;52.258;21.052;2022-10-17T05:32:12;32.47;;;17.73;;
65996;SDS011;52765;52.258;21.052;2022-10-17T05:34:38;33.90;;;17.90;;
65996;SDS011;52765;52.258;21.052;2022-10-17T05:37:04;34.47;;;18.58;;
65996;SDS011;52765;52.258;21.052;2022-10-17T05:39:29;34.13;;;17.70;;
65996;SDS011;52765;52.258;21.052;2022-10-17T05:41:55;30.08;;;17.25;;
65996;SDS011;52765;52.258;21.052;2022-10-17T05:44:20;30.85;;;18.52;;
65996;SDS011;52765;52.258;21.052;2022-10-17T05:46:48;27.55;;;17.50;;
65996;SDS011;52765;52.258;21.052;2022-10-17T05:49:14;33.35;;;17.10;;
65996;SDS011;52765;52.258;21.052;2022-10-17T05:51:40;29.30;;;17.40;;
65996;SDS011;52765;52.258;21.052;2022-10-17T05:54:06;32.13;;;16.80;;
65996;SDS011;52765;52.258;21.052;2022-10-17T05:56:32;29.65;;;17.35;;
65996;SDS011;52765;52.258;21.052;2022-10-17T05:58:58;34.33;;;17.67;;
65996;SDS011;52765;52.258;21.052;2022-10-17T06:01:24;29.23;;;17.38;;
65996;SDS011;52765;52.258;21.052;2022-10-17T06:03:50;27.35;;;17.52;;
65996;SDS011;52765;52.258;21.052;2022-10-17T06:06:15;28.58;;;17.52;;
65996;SDS011;52765;52.258;21.052;2022-10-17T06:08:42;28.13;;;16.85;;
65996;SDS011;52765;52.258;21.052;2022-10-17T06:11:07;30.70;;;18.02;;
65996;SDS011;52765;52.258;21.052;2022-10-17T06:13:33;27.95;;;17.90;;
65996;SDS011;52765;52.258;21.052;2022-10-17T06:15:58;32.90;;;18.13;;
65996;SDS011;52765;52.258;21.052;2022-10-17T06:18:24;29.83;;;17.33;;
65996;SDS011;52765;52.258;21.052;2022-10-17T06:20:50;29.00;;;18.17;;
65996;SDS011;52765;52.258;21.052;2022-10-17T06:23:16;29.95;;;17.80;;
65996;SDS011;52765;52.258;21.052;2022-10-17T06:25:42;26.92;;;15.95;;
65996;SDS011;52765;52.258;21.052;2022-10-17T06:28:08;31.23;;;16.95;;
65996;SDS011;52765;52.258;21.052;2022-10-17T06:30:36;31.98;;;18.67;;
65996;SDS011;52765;52.258;21.052;2022-10-17T06:33:03;38.75;;;19.00;;
65996;SDS011;52765;52.258;21.052;2022-10-17T06:35:29;31.52;;;19.25;;
65996;SDS011;52765;52.258;21.052;2022-10-17T06:37:55;32.88;;;19.02;;
65996;SDS011;52765;52.258;21.052;2022-10-17T06:40:20;29.27;;;16.67;;
65996;SDS011;52765;52.258;21.052;2022-10-17T06:42:46;30.45;;;18.92;;
65996;SDS011;52765;52.258;21.052;2022-10-17T06:45:12;28.80;;;18.02;;
65996;SDS011;52765;52.258;21.052;2022-10-17T06:47:37;32.88;;;18.02;;
65996;SDS011;52765;52.258;21.052;2022-10-17T06:50:03;28.83;;;17.33;;
65996;SDS011;52765;52.258;21.052;2022-10-17T06:52:28;34.03;;;18.38;;
65996;SDS011;52765;52.258;21.052;2022-10-17T06:54:54;25.25;;;16.83;;
65996;SDS011;52765;52.258;21.052;2022-10-17T06:57:19;28.67;;;17.27;;
65996;SDS011;52765;52.258;21.052;2022-10-17T06:59:45;32.38;;;17.63;;
65996;SDS011;52765;52.258;21.052;2022-10-17T07:02:13;27.80;;;17.90;;
65996;SDS011;52765;52.258;21.052;2022-10-17T07:04:38;28.45;;;17.25;;
65996;SDS011;52765;52.258;21.052;2022-10-17T07:07:04;27.73;;;17.90;;
65996;SDS011;52765;52.258;21.052;2022-10-17T07:09:30;30.08;;;18.35;;
65996;SDS011;52765;52.258;21.052;2022-10-17T07:12:01;29.20;;;18.42;;
65996;SDS011;52765;52.258;21.052;2022-10-17T07:14:26;25.98;;;17.38;;
65996;SDS011;52765;52.258;21.052;2022-10-17T07:16:56;27.48;;;17.98;;
65996;SDS011;52765;52.258;21.052;2022-10-17T07:19:23;30.23;;;17.80;;
65996;SDS011;52765;52.258;21.052;2022-10-17T07:21:49;37.05;;;20.15;;
65996;SDS011;52765;52.258;21.052;2022-10-17T07:24:14;31.55;;;18.52;;
65996;SDS011;52765;52.258;21.052;2022-10-17T07:26:40;28.42;;;17.50;;
65996;SDS011;52765;52.258;21.052;2022-10-17T07:29:13;32.40;;;18.98;;
65996;SDS011;52765;52.258;21.052;2022-10-17T07:31:39;35.15;;;18.45;;
65996;SDS011;52765;52.258;21.052;2022-10-17T07:34:07;34.33;;;20.38;;
65996;SDS011;52765;52.258;21.052;2022-10-17T07:36:34;29.05;;;17.73;;
65996;SDS011;52765;52.258;21.052;2022-10-17T07:38:59;32.03;;;19.48;;
65996;SDS011;52765;52.258;21.052;2022-10-17T07:41:25;35.70;;;19.67;;
65996;SDS011;52765;52.258;21.052;2022-10-17T07:43:50;30.08;;;19.63;;
65996;SDS011;52765;52.258;21.052;2022-10-17T07:46:16;31.20;;;19.10;;
65996;SDS011;52765;52.258;21.052;2022-10-17T07:48:42;30.83;;;19.05;;
65996;SDS011;52765;52.258;21.052;2022-10-17T07:51:08;28.83;;;18.27;;
65996;SDS011;52765;52.258;21.052;2022-10-17T07:53:34;30.85;;;17.83;;
65996;SDS011;52765;52.258;21.052;2022-10-17T07:56:05;31.90;;;19.50;;
65996;SDS011;52765;52.258;21.052;2022-10-17T07:58:32;25.38;;;16.88;;
65996;SDS011;52765;52.258;21.052;2022-10-17T08:01:06;34.00;;;19.50;;
65996;SDS011;52765;52.258;21.052;2022-10-17T08:03:33;29.33;;;19.08;;
65996;SDS011;52765;52.258;21.052;2022-10-17T08:05:59;27.15;;;18.42;;
65996;SDS011;52765;52.258;21.052;2022-10-17T08:08:26;32.10;;;18.13;;
65996;SDS011;52765;52.258;21.052;2022-10-17T08:10:52;28.40;;;17.67;;
65996;SDS011;52765;52.258;21.052;2022-10-17T08:13:19;27.20;;;17.17;;
65996;SDS011;52765;52.258;21.052;2022-10-17T08:15:46;27.13;;;17.55;;
65996;SDS011;52765;52.258;21.052;2022-10-17T08:18:20;27.70;;;18.48;;
65996;SDS011;52765;52.258;21.052;2022-10-17T08:20:46;31.15;;;19.42;;
65996;SDS011;52765;52.258;21.052;2022-10-17T08:23:12;30.13;;;18.50;;
65996;SDS011;52765;52.258;21.052;2022-10-17T08:25:38;24.60;;;17.25;;
65996;SDS011;52765;52.258;21.052;2022-10-17T08:28:04;28.95;;;16.58;;
65996;SDS011;52765;52.258;21.052;2022-10-17T08:30:30;29.65;;;18.85;;
65996;SDS011;52765;52.258;21.052;2022-10-17T08:32:55;25.65;;;15.88;;
65996;SDS011;52765;52.258;21.052;2022-10-17T08:35:21;25.40;;;16.05;;
65996;SDS011;52765;52.258;21.052;2022-10-17T08:37:47;31.10;;;17.67;;
65996;SDS011;52765;52.258;21.052;2022-10-17T08:40:18;45.20;;;20.20;;
65996;SDS011;52765;52.258;21.052;2022-10-17T08:48:22;42.95;;;20.83;;
65996;SDS011;52765;52.258;21.052;2022-10-17T08:50:56;35.75;;;21.33;;
65996;SDS011;52765;52.258;21.052;2022-10-17T08:53:33;35.65;;;20.92;;
65996;SDS011;52765;52.258;21.052;2022-10-17T08:56:08;37.75;;;21.08;;
65996;SDS011;52765;52.258;21.052;2022-10-17T08:58:46;37.20;;;21.25;;
65996;SDS011;52765;52.258;21.052;2022-10-17T09:01:19;35.60;;;20.23;;
65996;SDS011;52765;52.258;21.052;2022-10-17T09:07:00;28.15;;;16.73;;
65996;SDS011;52765;52.258;21.052;2022-10-17T09:20:29;24.13;;;16.45;;
65996;SDS011;52765;52.258;21.052;2022-10-17T09:23:05;35.75;;;18.70;;
65996;SDS011;52765;52.258;21.052;2022-10-17T09:25:44;24.77;;;16.63;;
65996;SDS011;52765;52.258;21.052;2022-10-17T09:33:38;22.98;;;14.80;;
65996;SDS011;52765;52.258;21.052;2022-10-17T09:36:10;23.52;;;15.68;;
65996;SDS011;52765;52.258;21.052;2022-10-17T09:38:44;22.20;;;14.95;;
65996;SDS011;52765;52.258;21.052;2022-10-17T09:41:15;23.92;;;15.98;;
65996;SDS011;52765;52.258;21.052;2022-10-17T09:43:45;23.67;;;15.15;;
65996;SDS011;52765;52.258;21.052;2022-10-17T09:46:17;24.60;;;16.40;;
65996;SDS011;52765;52.258;21.052;2022-10-17T09:48:51;24.08;;;15.00;;
65996;SDS011;52765;52.258;21.052;2022-10-17T09:51:22;21.83;;;14.15;;
65996;SDS011;52765;52.258;21.052;2022-10-17T09:53:56;19.75;;;14.18;;
65996;SDS011;52765;52.258;21.052;2022-10-17T09:56:26;27.30;;;16.27;;
65996;SDS011;52765;52.258;21.052;2022-10-17T09:58:55;27.33;;;16.48;;
65996;SDS011;52765;52.258;21.052;2022-10-17T10:06:33;20.90;;;13.90;;
65996;SDS011;52765;52.258;21.052;2022-10-17T10:08:59;24.70;;;15.25;;
65996;SDS011;52765;52.258;21.052;2022-10-17T10:14:27;23.33;;;15.43;;
65996;SDS011;52765;52.258;21.052;2022-10-17T10:16:57;27.90;;;14.90;;
65996;SDS011;52765;52.258;21.052;2022-10-17T10:19:27;28.63;;;16.33;;
65996;SDS011;52765;52.258;21.052;2022-10-17T10:22:00;23.05;;;14.73;;
65996;SDS011;52765;52.258;21.052;2022-10-17T10:24:43;19.40;;;13.32;;
65996;SDS011;52765;52.258;21.052;2022-10-17T10:27:28;20.65;;;12.88;;
65996;SDS011;52765;52.258;21.052;2022-10-17T10:29:54;18.55;;;13.10;;
65996;SDS011;52765;52.258;21.052;2022-10-17T10:37:41;21.55;;;13.25;;
65996;SDS011;52765;52.258;21.052;2022-10-17T10:43:34;19.50;;;12.27;;
65996;SDS011;52765;52.258;21.052;2022-10-17T10:46:18;19.52;;;12.27;;
65996;SDS011;52765;52.258;21.052;2022-10-17T10:54:32;17.67;;;11.65;;
65996;SDS011;52765;52.258;21.052;2022-10-17T10:57:03;21.10;;;12.40;;
65996;SDS011;52765;52.258;21.052;2022-10-17T11:04:48;22.52;;;13.43;;
65996;SDS011;52765;52.258;21.052;2022-10-17T11:07:20;19.00;;;12.88;;
65996;SDS011;52765;52.258;21.052;2022-10-17T11:09:55;19.02;;;12.05;;
65996;SDS011;52765;52.258;21.052;2022-10-17T11:12:51;18.40;;;12.23;;
65996;SDS011;52765;52.258;21.052;2022-10-17T11:16:03;18.00;;;11.45;;
65996;SDS011;52765;52.258;21.052;2022-10-17T11:18:24;21.08;;;12.70;;
65996;SDS011;52765;52.258;21.052;2022-10-17T11:26:34;16.85;;;11.57;;
65996;SDS011;52765;52.258;21.052;2022-10-17T11:29:02;21.25;;;12.27;;
65996;SDS011;52765;52.258;21.052;2022-10-17T11:31:36;18.98;;;12.32;;
65996;SDS011;52765;52.258;21.052;2022-10-17T11:34:14;16.83;;;11.93;;
65996;SDS011;52765;52.258;21.052;2022-10-17T11:36:46;20.30;;;13.73;;
65996;SDS011;52765;52.258;21.052;2022-10-17T11:44:34;22.35;;;12.50;;
65996;SDS011;52765;52.258;21.052;2022-10-17T11:47:18;22.50;;;12.98;;
65996;SDS011;52765;52.258;21.052;2022-10-17T11:52:42;19.95;;;11.85;;
65996;SDS011;52765;52.258;21.052;2022-10-17T11:57:57;16.92;;;10.77;;
65996;SDS011;52765;52.258;21.052;2022-10-17T12:09:51;27.92;;;12.65;;
65996;SDS011;52765;52.258;21.052;2022-10-17T12:12:23;16.85;;;11.80;;
65996;SDS011;52765;52.258;21.052;2022-10-17T12:14:51;18.17;;;12.30;;
65996;SDS011;52765;52.258;21.052;2022-10-17T12:17:32;17.10;;;12.30;;
65996;SDS011;52765;52.258;21.052;2022-10-17T12:20:36;21.30;;;11.63;;
65996;SDS011;52765;52.258;21.052;2022-10-17T12:23:01;16.63;;;10.82;;
65996;SDS011;52765;52.258;21.052;2022-10-17T12:25:49;14.88;;;10.52;;
65996;SDS011;52765;52.258;21.052;2022-10-17T12:30:58;17.35;;;11.50;;
65996;SDS011;52765;52.258;21.052;2022-10-17T12:33:34;15.95;;;11.25;;
65996;SDS011;52765;52.258;21.052;2022-10-17T12:49:36;17.63;;;11.73;;
65996;SDS011;52765;52.258;21.052;2022-10-17T12:54:52;15.90;;;11.23;;
65996;SDS011;52765;52.258;21.052;2022-10-17T12:57:35;19.27;;;12.43;;
65996;SDS011;52765;52.258;21.052;2022-10-17T13:02:43;16.17;;;11.48;;
65996;SDS011;52765;52.258;21.052;2022-10-17T13:05:18;17.45;;;11.40;;
65996;SDS011;52765;52.258;21.052;2022-10-17T13:07:54;15.23;;;11.10;;
65996;SDS011;52765;52.258;21.052;2022-10-17T13:10:25;17.42;;;11.50;;
65996;SDS011;52765;52.258;21.052;2022-10-17T13:12:53;19.05;;;12.60;;
65996;SDS011;52765;52.258;21.052;2022-10-17T13:15:29;19.42;;;12.80;;
65996;SDS011;52765;52.258;21.052;2022-10-17T13:17:57;21.95;;;13.38;;
65996;SDS011;52765;52.258;21.052;2022-10-17T13:20:25;21.50;;;12.55;;
65996;SDS011;52765;52.258;21.052;2022-10-17T13:22:52;15.32;;;11.40;;
65996;SDS011;52765;52.258;21.052;2022-10-17T13:25:20;19.02;;;12.05;;
65996;SDS011;52765;52.258;21.052;2022-10-17T13:27:46;21.73;;;12.23;;
65996;SDS011;52765;52.258;21.052;2022-10-17T13:30:29;18.17;;;11.38;;
65996;SDS011;52765;52.258;21.052;2022-10-17T13:32:57;14.93;;;11.02;;
65996;SDS011;52765;52.258;21.052;2022-10-17T13:35:26;17.98;;;11.85;;
65996;SDS011;52765;52.258;21.052;2022-10-17T13:37:54;18.50;;;11.32;;
65996;SDS011;52765;52.258;21.052;2022-10-17T13:40:22;17.73;;;11.18;;
65996;SDS011;52765;52.258;21.052;2022-10-17T13:42:49;23.35;;;11.63;;
65996;SDS011;52765;52.258;21.052;2022-10-17T13:45:18;18.23;;;11.55;;
65996;SDS011;52765;52.258;21.052;2022-10-17T13:47:49;18.13;;;11.07;;
65996;SDS011;52765;52.258;21.052;2022-10-17T13:50:23;18.10;;;11.52;;
65996;SDS011;52765;52.258;21.052;2022-10-17T13:53:06;16.88;;;10.63;;
65996;SDS011;52765;52.258;21.052;2022-10-17T13:55:49;20.38;;;10.90;;
65996;SDS011;52765;52.258;21.052;2022-10-17T13:58:16;19.85;;;13.18;;
65996;SDS011;52765;52.258;21.052;2022-10-17T14:00:43;15.70;;;11.27;;
65996;SDS011;52765;52.258;21.052;2022-10-17T14:03:09;20.65;;;11.75;;
65996;SDS011;52765;52.258;21.052;2022-10-17T14:05:35;17.92;;;10.82;;
65996;SDS011;52765;52.258;21.052;2022-10-17T14:08:36;16.63;;;10.88;;
65996;SDS011;52765;52.258;21.052;2022-10-17T14:11:12;17.73;;;11.40;;
65996;SDS011;52765;52.258;21.052;2022-10-17T14:13:40;18.48;;;11.48;;
65996;SDS011;52765;52.258;21.052;2022-10-17T14:16:06;15.48;;;10.52;;
65996;SDS011;52765;52.258;21.052;2022-10-17T14:18:34;15.05;;;10.98;;
65996;SDS011;52765;52.258;21.052;2022-10-17T14:21:01;19.02;;;10.70;;
65996;SDS011;52765;52.258;21.052;2022-10-17T14:23:32;15.73;;;11.48;;
65996;SDS011;52765;52.258;21.052;2022-10-17T14:26:03;16.60;;;10.88;;
65996;SDS011;52765;52.258;21.052;2022-10-17T14:28:29;16.67;;;11.48;;
65996;SDS011;52765;52.258;21.052;2022-10-17T14:31:07;16.40;;;11.27;;
65996;SDS011;52765;52.258;21.052;2022-10-17T14:33:45;18.60;;;11.77;;
65996;SDS011;52765;52.258;21.052;2022-10-17T14:36:12;15.57;;;10.45;;
65996;SDS011;52765;52.258;21.052;2022-10-17T14:38:43;16.33;;;10.52;;
65996;SDS011;52765;52.258;21.052;2022-10-17T14:41:16;16.38;;;10.68;;
65996;SDS011;52765;52.258;21.052;2022-10-17T14:43:51;14.40;;;10.18;;
65996;SDS011;52765;52.258;21.052;2022-10-17T14:46:28;13.50;;;9.43;;
65996;SDS011;52765;52.258;21.052;2022-10-17T14:48:57;14.23;;;10.20;;
65996;SDS011;52765;52.258;21.052;2022-10-17T14:51:31;19.15;;;11.32;;
65996;SDS011;52765;52.258;21.052;2022-10-17T14:53:58;14.80;;;10.98;;
65996;SDS011;52765;52.258;21.052;2022-10-17T14:56:41;16.58;;;10.43;;
65996;SDS011;52765;52.258;21.052;2022-10-17T14:59:07;16.45;;;10.02;;
65996;SDS011;52765;52.258;21.052;2022-10-17T15:01:35;15.20;;;10.80;;
65996;SDS011;52765;52.258;21.052;2022-10-17T15:04:00;15.25;;;11.32;;
65996;SDS011;52765;52.258;21.052;2022-10-17T15:06:27;17.20;;;11.88;;
65996;SDS011;52765;52.258;21.052;2022-10-17T15:08:56;18.02;;;10.52;;
65996;SDS011;52765;52.258;21.052;2022-10-17T15:11:22;16.85;;;11.25;;
65996;SDS011;52765;52.258;21.052;2022-10-17T15:13:50;18.80;;;12.02;;
65996;SDS011;52765;52.258;21.052;2022-10-17T15:16:20;16.95;;;11.30;;
65996;SDS011;52765;52.258;21.052;2022-10-17T15:18:48;18.05;;;10.75;;
65996;SDS011;52765;52.258;21.052;2022-10-17T15:21:18;15.57;;;10.45;;
65996;SDS011;52765;52.258;21.052;2022-10-17T15:23:45;19.60;;;11.90;;
65996;SDS011;52765;52.258;21.052;2022-10-17T15:26:18;20.52;;;11.27;;
65996;SDS011;52765;52.258;21.052;2022-10-17T15:28:49;19.52;;;12.48;;
65996;SDS011;52765;52.258;21.052;2022-10-17T15:31:16;21.08;;;12.70;;
65996;SDS011;52765;52.258;21.052;2022-10-17T15:33:43;20.35;;;12.77;;
65996;SDS011;52765;52.258;21.052;2022-10-17T15:36:29;18.35;;;12.20;;
65996;SDS011;52765;52.258;21.052;2022-10-17T15:39:00;16.90;;;11.63;;
65996;SDS011;52765;52.258;21.052;2022-10-17T15:41:27;17.73;;;10.82;;
65996;SDS011;52765;52.258;21.052;2022-10-17T15:43:54;22.23;;;12.38;;
65996;SDS011;52765;52.258;21.052;2022-10-17T15:46:21;14.88;;;11.23;;
65996;SDS011;52765;52.258;21.052;2022-10-17T15:48:49;16.52;;;11.02;;
65996;SDS011;52765;52.258;21.052;2022-10-17T15:51:14;20.83;;;12.85;;
65996;SDS011;52765;52.258;21.052;2022-10-17T15:53:40;23.13;;;12.38;;
65996;SDS011;52765;52.258;21.052;2022-10-17T15:56:06;24.42;;;13.05;;
65996;SDS011;52765;52.258;21.052;2022-10-17T15:58:38;18.48;;;11.32;;
65996;SDS011;52765;52.258;21.052;2022-10-17T16:01:04;17.88;;;11.35;;
65996;SDS011;52765;52.258;21.052;2022-10-17T16:03:31;17.50;;;12.48;;
65996;SDS011;52765;52.258;21.052;2022-10-17T16:05:57;20.60;;;12.45;;
65996;SDS011;52765;52.258;21.052;2022-10-17T16:08:23;17.05;;;11.63;;
65996;SDS011;52765;52.258;21.052;2022-10-17T16:10:48;16.30;;;10.85;;
65996;SDS011;52765;52.258;21.052;2022-10-17T16:13:18;14.10;;;10.40;;
65996;SDS011;52765;52.258;21.052;2022-10-17T16:15:46;18.90;;;11.55;;
65996;SDS011;52765;52.258;21.052;2022-10-17T16:18:12;17.23;;;11.75;;
65996;SDS011;52765;52.258;21.052;2022-10-17T16:20:37;18.08;;;12.23;;
65996;SDS011;52765;52.258;21.052;2022-10-17T16:23:03;19.48;;;13.38;;
65996;SDS011;52765;52.258;21.052;2022-10-17T16:25:30;18.65;;;12.80;;
65996;SDS011;52765;52.258;21.052;2022-10-17T16:27:57;18.17;;;12.32;;
65996;SDS011;52765;52.258;21.052;2022-10-17T16:30:24;15.70;;;11.73;;
65996;SDS011;52765;52.258;21.052;2022-10-17T16:32:52;17.63;;;12.38;;